WetterOnline ( https://www.wetteronline.de )

Wetter aktuell Neustadt

Aktuelles Wetter: Pelzerhaken/Neustadt i.H. (2m)

6-stündlich | Neueste Meldungen
Ortszeit Temperatur Wetter
Mo, 03.10. 14:00 16.2° C bewölkt
Mo, 03.10. 8:00 10.3° C wolkenlos
Mo, 03.10. 2:00 10.9° C wolkenlos
So, 02.10. 20:00 12.5° C wolkenlos
So, 02.10. 14:00 12.8° C leichter Regen
So, 02.10. 8:00 11.8° C wolkig
So, 02.10. 2:00 11.7° C Sprühregen
Sa, 01.10. 20:00 13.1° C bewölkt
Ortszeit Temperatur Wetter
Mo, 03.10. 16:30 16.3° C bewölkt
Mo, 03.10. 16:20 16.3° C bewölkt
Mo, 03.10. 16:10 16.3° C bewölkt
Mo, 03.10. 16:00 15.6° C bedeckt
Mo, 03.10. 15:50 15.6° C Sprühregen
Mo, 03.10. 15:40 15.5° C bewölkt
Mo, 03.10. 15:30 16.6° C wolkig
Mo, 03.10. 15:00 17.4° C wolkig
Mo, 03.10. 14:30 17.1° C leicht bewölkt
Mo, 03.10. 14:00 16.2° C bewölkt
Mo, 03.10. 13:30 16.1° C bewölkt
Ortszeit Relative Feuchte Sichtweite
Mo, 03.10. 14:00 65% 45 km
Mo, 03.10. 8:00 92% 21 km
Mo, 03.10. 2:00 91% 30 km
So, 02.10. 20:00 82% 35 km
So, 02.10. 14:00 82% 11 km
So, 02.10. 8:00 91% 45 km
So, 02.10. 2:00 91% 30 km
Sa, 01.10. 20:00 88% 50 km
Ortszeit Relative Feuchte Sichtweite
Mo, 03.10. 16:30 70% 40 km
Mo, 03.10. 16:20 70% -
Mo, 03.10. 16:10 71% -
Mo, 03.10. 16:00 76% 30 km
Mo, 03.10. 15:50 76% -
Mo, 03.10. 15:40 76% -
Mo, 03.10. 15:30 67% 40 km
Mo, 03.10. 15:00 63% 45 km
Mo, 03.10. 14:30 66% 35 km
Mo, 03.10. 14:00 65% 45 km
Mo, 03.10. 13:30 67% 27 km
Ortszeit Niederschlagsmenge Niederschlagsart
Mo, 03.10. 14:00 0.0 l/m2 in 6 Std. -
Mo, 03.10. 8:00 0.0 l/m2 in 12 Std. -
Mo, 03.10. 2:00 0.0 l/m2 in 6 Std. -
So, 02.10. 20:00 1 l/m2 in 12 Std. Regen
So, 02.10. 14:00 1 l/m2 in 6 Std. Regen
So, 02.10. 8:00 0.6 l/m2 in 12 Std. Regen
So, 02.10. 2:00 0.2 l/m2 in 6 Std. Regen
Sa, 01.10. 20:00 4 l/m2 in 12 Std. Regen
Ortszeit Niederschlagsmenge Niederschlagsart
Mo, 03.10. 16:30 0.0 l/m2 in 1 Std. -
Mo, 03.10. 16:20 keine Meldung -
Mo, 03.10. 16:10 keine Meldung -
Mo, 03.10. 16:00 <0.05 l/m2 in 1 Std. Regen
Mo, 03.10. 15:50 keine Meldung -
Mo, 03.10. 15:40 keine Meldung -
Mo, 03.10. 15:30 0.0 l/m2 in 1 Std. -
Mo, 03.10. 15:00 0.0 l/m2 in 1 Std. -
Mo, 03.10. 14:30 0.0 l/m2 in 1 Std. -
Mo, 03.10. 14:00 0.0 l/m2 in 1 Std. -
Mo, 03.10. 13:30 0.0 l/m2 in 1 Std. -
Ortszeit Stärke Spitze Richtung
km/h Bft. km/h Grad Sektor
Mo, 03.10. 14:00 22 4 43 310° NW
Mo, 03.10. 8:00 9 2 28 300° NW
Mo, 03.10. 2:00 11 2 29 300° NW
So, 02.10. 20:00 7 2 40 290° W
So, 02.10. 14:00 19 3 43 310° NW
So, 02.10. 8:00 18 3 43 250° W
So, 02.10. 2:00 18 3 32 260° W
Sa, 01.10. 20:00 9 2 35 270° W
Ortszeit Stärke Spitze Richtung
km/h Bft. km/h Grad Sektor
Mo, 03.10. 16:30 11 2 29 320° NW
Mo, 03.10. 16:20 11 2 - 320° NW
Mo, 03.10. 16:10 14 3 - 320° NW
Mo, 03.10. 16:00 11 2 29 310° NW
Mo, 03.10. 15:50 11 2 - 310° NW
Mo, 03.10. 15:40 13 3 - 310° NW
Mo, 03.10. 15:30 14 3 29 320° NW
Mo, 03.10. 15:00 18 3 32 320° NW
Mo, 03.10. 14:30 11 2 32 320° NW
Mo, 03.10. 14:00 22 4 36 310° NW
Mo, 03.10. 13:30 14 3 32 310° NW
Ortszeit Untergrenze Bedeckung Gattung
total tief tief mittel hoch
Mo, 03.10. 14:00 870 m 7/8 7/8 - - -
Mo, 03.10. 8:00 - 0/8 0/8 - - -
Mo, 03.10. 2:00 - 0/8 0/8 - - -
So, 02.10. 20:00 - 0/8 0/8 - - -
So, 02.10. 14:00 840 m 7/8 7/8 - - -
So, 02.10. 8:00 1500 m 7/8 1/8 - - -
So, 02.10. 2:00 1080 m 1/8 1/8 - - -
Sa, 01.10. 20:00 1500 m 7/8 7/8 - - -
Ortszeit Bedeckungsgrad in Achtel und Wolkenuntergrenze
Mo, 03.10. 16:30 2(1110m) 7(1500m)
Mo, 03.10. 16:20 2(1110m) 7(1500m)
Mo, 03.10. 16:10 7
Mo, 03.10. 16:00 2(870m) 5(1290m) 8(1500m)
Mo, 03.10. 15:50 2(870m) 5(1290m) 8(1500m)
Mo, 03.10. 15:40 7
Mo, 03.10. 15:30 1(930m) 3(1380m) 5(1800m)
Mo, 03.10. 15:00 3(930m) 4(1170m) 6(1500m)
Mo, 03.10. 14:30 3(870m) 4(1110m)
Mo, 03.10. 14:00 2(870m) 3(1050m) 7(2100m)
Mo, 03.10. 13:30 7(2100m)
Ortszeit Luftdruck NN (hPa) Tendenz (hPa in 3 Std.)
Mo, 03.10. 14:00 1022 + 0,1
Mo, 03.10. 8:00 1021 + 1,2
Mo, 03.10. 2:00 1019 + 1,5
So, 02.10. 20:00 1015 + 2,3
So, 02.10. 14:00 1012 + 1,0
So, 02.10. 8:00 1009 + 0,6
So, 02.10. 2:00 1008 + 1,8
Sa, 01.10. 20:00 1003 + 3,0
Ortszeit Luftdruck NN (hPa) Tendenz (hPa in 3 Std.)
Mo, 03.10. 16:30 1022 - 0,2
Mo, 03.10. 16:20 1022 keine Meldung
Mo, 03.10. 16:10 1022 keine Meldung
Mo, 03.10. 16:00 1022 + 0,1
Mo, 03.10. 15:50 1022 keine Meldung
Mo, 03.10. 15:40 1022 keine Meldung
Mo, 03.10. 15:30 1022 - 0,3
Mo, 03.10. 15:00 1022 - 0,3
Mo, 03.10. 14:30 1022 - 0,2
Mo, 03.10. 14:00 1022 + 0,1
Mo, 03.10. 13:30 1022 + 0,1
Ortszeit Schneehöhe (cm)
Mo, 03.10. 14:00 0
Mo, 03.10. 8:00 0
Mo, 03.10. 2:00 0
So, 02.10. 20:00 0
So, 02.10. 14:00 0
So, 02.10. 8:00 0
So, 02.10. 2:00 0
Sa, 01.10. 20:00 0
Ortszeit Schneehöhe (cm)
Mo, 03.10. 16:30 0
Mo, 03.10. 16:20 0
Mo, 03.10. 16:10 0
Mo, 03.10. 16:00 0
Mo, 03.10. 15:50 0
Mo, 03.10. 15:40 0
Mo, 03.10. 15:30 0
Mo, 03.10. 15:00 0
Mo, 03.10. 14:30 0
Mo, 03.10. 14:00 0
Mo, 03.10. 13:30 0
Link zu dieser Seite / Seite empfehlen

Das Wetter in ...